Time;durP1;ratioP1;P1;durP2;ratioP2;P2;SDS_P1;SDS_P2;PMS_P1;PMS_P2;Temp;Humidity;BMP_temperature;BMP_pressure;BME280_temperature;BME280_humidity;BME280_pressure;Samples;Min_cycle;Max_cycle;Signal;HPM_P1;HPM_P2
2021/03/14 00:01:17;;;;;;;10.52;5.38;;;179.40;2252.80;;;;;;5083338;28;20525;-69
2021/03/14 00:03:43;;;;;;;8.48;5.13;;;179.40;2252.80;;;;;;5091116;28;20071;-70
2021/03/14 00:06:09;;;;;;;9.32;4.95;;;179.40;2252.80;;;;;;5083740;28;20421;-70
2021/03/14 00:08:35;;;;;;;8.93;4.72;;;179.30;2252.80;;;;;;5083456;28;20016;-70
2021/03/14 00:11:04;;;;;;;7.53;4.45;;;179.40;2252.80;;;;;;5084129;28;20028;-69
2021/03/14 00:13:36;;;;;;;8.95;4.60;;;179.40;2252.80;;;;;;5086979;28;20048;-70
2021/03/14 00:16:04;;;;;;;7.88;4.90;;;179.40;2252.80;;;;;;5087422;28;20103;-69
2021/03/14 00:18:35;;;;;;;7.90;4.40;;;179.40;2252.80;;;;;;5086348;28;20029;-70
2021/03/14 00:21:02;;;;;;;6.90;4.28;;;179.30;2252.80;;;;;;5085612;28;20024;-70
2021/03/14 00:23:28;;;;;;;7.22;4.75;;;179.30;2252.80;;;;;;5086746;28;20024;-69
2021/03/14 00:25:55;;;;;;;7.95;4.82;;;179.20;2252.80;;;;;;5086721;28;20054;-69
2021/03/14 00:28:22;;;;;;;8.40;4.60;;;179.20;2252.80;;;;;;5079541;28;20347;-70
2021/03/14 00:30:48;;;;;;;9.27;5.32;;;154.50;2252.80;;;;;;5089967;28;20024;-70
2021/03/14 00:33:14;;;;;;;8.20;5.22;;;154.50;2252.80;;;;;;5083515;28;20029;-70
2021/03/14 00:35:40;;;;;;;7.32;4.35;;;154.40;2252.80;;;;;;5082807;28;20074;-70
2021/03/14 00:38:06;;;;;;;6.03;4.07;;;154.30;2252.80;;;;;;5083796;28;20032;-69
2021/03/14 00:40:32;;;;;;;10.13;4.93;;;154.30;2252.80;;;;;;5083699;28;20126;-69
2021/03/14 00:43:01;;;;;;;7.13;3.80;;;154.20;2252.80;;;;;;5086133;28;20028;-70
2021/03/14 00:45:28;;;;;;;;;;;154.20;2252.80;;;;;;5084374;28;20025;-69
2021/03/14 00:47:54;;;;;;;8.20;4.47;;;154.20;2252.80;;;;;;5086758;28;19915;-68
2021/03/14 00:50:20;;;;;;;6.38;3.65;;;154.10;2252.80;;;;;;5086251;28;20631;-69
2021/03/14 00:52:46;;;;;;;8.20;3.78;;;154.10;2252.80;;;;;;5084961;28;20044;-69
2021/03/14 00:55:12;;;;;;;9.90;4.30;;;154.20;2252.80;;;;;;5086607;28;20376;-69
2021/03/14 00:57:38;;;;;;;7.30;4.00;;;154.10;2252.80;;;;;;5085352;28;20024;-69
2021/03/14 01:00:06;;;;;;;9.40;4.45;;;153.90;2252.80;;;;;;5084834;28;20171;-69
2021/03/14 01:02:32;;;;;;;6.63;3.83;;;154.00;2252.80;;;;;;5086941;28;20118;-69
2021/03/14 01:04:57;;;;;;;5.70;3.67;;;153.80;2252.80;;;;;;5085595;28;20159;-69
2021/03/14 01:07:23;;;;;;;5.97;3.63;;;153.80;2252.80;;;;;;5085126;28;20028;-69
2021/03/14 01:09:49;;;;;;;7.60;3.88;;;153.70;2252.80;;;;;;5096496;28;20031;-68
2021/03/14 01:12:15;;;;;;;6.90;3.83;;;153.60;2252.80;;;;;;5096557;28;20032;-69
2021/03/14 01:14:41;;;;;;;10.20;4.00;;;153.60;2252.80;;;;;;5096356;28;20052;-68
2021/03/14 01:17:07;;;;;;;10.30;4.45;;;128.90;2252.80;;;;;;5096877;28;20403;-70
2021/03/14 01:19:33;;;;;;;6.60;3.60;;;128.90;2252.80;;;;;;5096750;28;20028;-69
2021/03/14 01:21:59;;;;;;;6.15;3.70;;;128.90;2252.80;;;;;;5096466;28;20339;-69
2021/03/14 01:24:25;;;;;;;5.45;3.65;;;128.90;2252.80;;;;;;5095763;28;20028;-69
2021/03/14 01:26:51;;;;;;;6.35;3.63;;;128.90;2252.80;;;;;;5096683;28;20055;-69
2021/03/14 01:29:17;;;;;;;6.80;3.70;;;128.90;2252.80;;;;;;5096878;28;20028;-70
2021/03/14 01:31:42;;;;;;;5.85;3.92;;;128.90;2252.80;;;;;;5096606;28;20077;-69
2021/03/14 01:34:08;;;;;;;5.88;3.72;;;128.90;2252.80;;;;;;5096361;28;20064;-68
2021/03/14 01:36:34;;;;;;;6.25;3.50;;;153.60;2252.80;;;;;;5096540;28;20127;-68
2021/03/14 01:39:00;;;;;;;5.25;3.47;;;128.90;2252.80;;;;;;5096153;28;20032;-69
2021/03/14 01:41:26;;;;;;;9.13;3.92;;;128.90;2252.80;;;;;;5096458;28;20418;-69
2021/03/14 01:43:51;;;;;;;5.78;3.55;;;128.90;2252.80;;;;;;5096182;28;20027;-69
2021/03/14 01:46:18;;;;;;;5.82;3.50;;;128.90;2252.80;;;;;;5095706;28;20453;-70
2021/03/14 01:48:44;;;;;;;7.20;3.45;;;128.90;2252.80;;;;;;5096568;28;20034;-70
2021/03/14 01:51:10;;;;;;;6.13;3.83;;;128.90;2252.80;;;;;;5096228;28;20034;-69
2021/03/14 01:53:36;;;;;;;6.07;3.63;;;128.90;2252.80;;;;;;5095892;28;20032;-69
2021/03/14 01:56:02;;;;;;;6.82;3.70;;;128.80;2252.80;;;;;;5096390;28;20346;-69
2021/03/14 01:58:29;;;;;;;9.48;3.80;;;128.70;2252.80;;;;;;5096178;28;20019;-70
2021/03/14 02:00:55;;;;;;;6.25;3.67;;;128.80;2252.80;;;;;;5095302;28;20342;-69
2021/03/14 02:03:23;;;;;;;7.97;3.55;;;128.80;2252.80;;;;;;5095808;28;20070;-70
2021/03/14 02:05:50;;;;;;;7.38;3.83;;;128.80;2252.80;;;;;;5096000;28;20077;-70
2021/03/14 02:08:16;;;;;;;7.75;3.22;;;128.70;2252.80;;;;;;5096089;28;20028;-69
2021/03/14 02:10:42;;;;;;;5.50;3.47;;;128.70;2252.80;;;;;;5095660;28;20070;-69
2021/03/14 02:13:34;;;;;;;8.80;3.88;;;128.60;2252.80;;;;;;5095530;28;20062;-68
2021/03/14 02:16:09;;;;;;;6.50;3.40;;;128.60;2252.80;;;;;;5095937;28;20057;-69
2021/03/14 02:18:38;;;;;;;6.30;3.47;;;128.60;2252.80;;;;;;5096086;28;20023;-70
2021/03/14 02:21:05;;;;;;;6.60;3.58;;;128.50;2252.80;;;;;;5095214;28;20035;-70
2021/03/14 02:23:36;;;;;;;4.60;3.17;;;128.50;2252.80;;;;;;5095689;28;20032;-70
2021/03/14 02:26:13;;;;;;;9.52;3.33;;;128.50;2252.80;;;;;;5095894;28;20111;-70
2021/03/14 02:28:40;;;;;;;6.03;3.50;;;128.60;2252.80;;;;;;5095407;28;20473;-69
2021/03/14 02:31:08;;;;;;;9.48;3.35;;;128.50;2252.80;;;;;;5095423;28;20657;-69
2021/03/14 02:33:38;;;;;;;6.97;3.42;;;128.60;2252.80;;;;;;5094643;28;20055;-69
2021/03/14 02:36:08;;;;;;;9.63;3.72;;;128.60;2252.80;;;;;;5095083;28;20098;-69
2021/03/14 02:38:35;;;;;;;8.25;3.20;;;128.70;2252.80;;;;;;5095721;28;20039;-69
2021/03/14 02:41:03;;;;;;;6.70;3.30;;;128.70;2252.80;;;;;;5095679;28;20024;-69
2021/03/14 02:43:31;;;;;;;5.28;3.08;;;128.70;2252.80;;;;;;5095003;28;20030;-69
2021/03/14 02:45:57;;;;;;;8.57;4.05;;;128.70;2252.80;;;;;;5095419;28;20063;-69
2021/03/14 02:48:23;;;;;;;7.25;3.67;;;128.70;2252.80;;;;;;5094732;28;20499;-69
2021/03/14 02:50:50;;;;;;;5.47;3.13;;;128.70;2252.80;;;;;;5094999;28;20036;-70
2021/03/14 02:53:18;;;;;;;8.13;3.10;;;128.70;2252.80;;;;;;5095492;28;20032;-69
2021/03/14 02:55:45;;;;;;;6.68;3.40;;;128.80;2252.80;;;;;;5094675;28;20028;-69
2021/03/14 02:58:12;;;;;;;5.38;3.05;;;128.70;2252.80;;;;;;5095239;28;20024;-70
2021/03/14 03:00:41;;;;;;;5.97;3.25;;;128.70;2252.80;;;;;;5095027;28;20411;-69
2021/03/14 03:03:07;;;;;;;6.90;3.08;;;128.60;2252.80;;;;;;5094416;28;20024;-70
2021/03/14 03:05:34;;;;;;;5.22;2.92;;;128.60;2252.80;;;;;;5094466;28;20040;-70
2021/03/14 03:08:01;;;;;;;7.53;3.70;;;128.60;2252.80;;;;;;5095236;28;20093;-69
2021/03/14 03:10:32;;;;;;;6.00;2.88;;;128.60;2252.80;;;;;;5094631;28;20031;-69
2021/03/14 03:12:59;;;;;;;8.07;2.90;;;128.60;2252.80;;;;;;5095172;28;20086;-70
2021/03/14 03:15:26;;;;;;;4.38;2.78;;;128.60;2252.80;;;;;;5094364;28;20361;-69
2021/03/14 03:17:52;;;;;;;5.28;3.33;;;128.60;2252.80;;;;;;5094710;28;20035;-69
2021/03/14 03:20:19;;;;;;;5.55;2.90;;;128.60;2252.80;;;;;;5095199;28;20376;-70
2021/03/14 03:22:47;;;;;;;5.68;3.20;;;128.70;2252.80;;;;;;5094843;28;20028;-70
2021/03/14 03:25:13;;;;;;;5.32;2.60;;;128.60;2252.80;;;;;;5094078;28;20032;-69
2021/03/14 03:27:39;;;;;;;5.30;2.60;;;128.70;2252.80;;;;;;5094869;28;20028;-70
2021/03/14 03:30:08;;;;;;;5.40;2.60;;;128.60;2252.80;;;;;;5094446;28;20047;-69
2021/03/14 03:32:34;;;;;;;;;;;128.60;2252.80;;;;;;5095302;28;20028;-69
2021/03/14 03:35:00;;;;;;;5.35;2.63;;;128.60;2252.80;;;;;;5094327;28;20221;-70
2021/03/14 03:37:25;;;;;;;5.05;2.70;;;128.60;2252.80;;;;;;5094864;28;20331;-69
2021/03/14 03:39:51;;;;;;;6.35;2.63;;;128.60;2252.80;;;;;;5094754;28;20028;-70
2021/03/14 03:42:25;;;;;;;7.55;3.00;;;128.70;2252.80;;;;;;5094369;28;20077;-70
2021/03/14 03:44:54;;;;;;;4.95;3.05;;;128.70;2252.80;;;;;;5095091;28;20037;-70
2021/03/14 03:47:21;;;;;;;6.03;2.43;;;128.60;2252.80;;;;;;5098438;28;20024;-70
2021/03/14 03:49:50;;;;;;;8.10;4.15;;;128.60;2252.80;;;;;;5099224;28;20060;-70
2021/03/14 03:52:19;;;;;;;7.32;4.10;;;128.60;2252.80;;;;;;5098568;28;20031;-70
2021/03/14 03:54:47;;;;;;;8.77;3.67;;;128.60;2252.80;;;;;;5097844;28;20020;-70
2021/03/14 03:57:14;;;;;;;4.95;2.70;;;128.60;2252.80;;;;;;5099563;28;20028;-69
2021/03/14 03:59:41;;;;;;;6.18;2.95;;;128.70;2252.80;;;;;;5100421;28;20074;-69
2021/03/14 04:02:07;;;;;;;7.28;2.58;;;128.60;2252.80;;;;;;5100935;28;20031;-69
2021/03/14 04:04:37;;;;;;;5.43;2.85;;;128.70;2252.80;;;;;;5099956;28;20085;-69
2021/03/14 04:07:04;;;;;;;8.80;3.05;;;128.80;2252.80;;;;;;5100623;28;20408;-70
2021/03/14 04:09:31;;;;;;;6.65;3.47;;;128.90;2252.80;;;;;;5100710;28;20111;-68
2021/03/14 04:11:58;;;;;;;6.05;2.97;;;128.80;2252.80;;;;;;5100224;28;20073;-70
2021/03/14 04:14:24;;;;;;;9.57;5.18;;;128.90;2252.80;;;;;;5100567;28;20138;-69
2021/03/14 04:16:52;;;;;;;8.25;4.60;;;153.60;2252.80;;;;;;5099880;28;20024;-69
2021/03/14 04:19:21;;;;;;;9.80;4.40;;;128.90;2252.80;;;;;;5100319;28;20106;-68
2021/03/14 04:21:51;;;;;;;8.10;4.50;;;128.70;2252.80;;;;;;5100032;28;20049;-70
2021/03/14 04:24:17;;;;;;;9.93;4.53;;;128.80;2252.80;;;;;;5100367;28;20035;-69
2021/03/14 04:26:46;;;;;;;7.97;4.57;;;128.70;2252.80;;;;;;5099620;28;20043;-70
2021/03/14 04:29:13;;;;;;;9.02;3.95;;;128.50;2252.80;;;;;;5099749;28;20307;-69
2021/03/14 04:31:45;;;;;;;8.55;4.32;;;128.40;2252.80;;;;;;5100060;28;20458;-70
2021/03/14 04:34:13;;;;;;;6.88;3.90;;;128.40;2252.80;;;;;;5099961;28;20024;-69
2021/03/14 04:36:41;;;;;;;7.07;3.10;;;128.40;2252.80;;;;;;5099736;28;20027;-70
2021/03/14 04:39:08;;;;;;;4.13;2.40;;;128.40;2252.80;;;;;;5100212;28;20016;-70
2021/03/14 04:41:34;;;;;;;4.63;2.35;;;128.50;2252.80;;;;;;5099880;28;20253;-70
2021/03/14 04:44:02;;;;;;;4.30;2.33;;;128.50;2252.80;;;;;;5099762;28;20055;-69
2021/03/14 04:46:28;;;;;;;8.38;2.50;;;128.60;2252.80;;;;;;5099417;28;20020;-69
2021/03/14 04:48:55;;;;;;;5.30;3.13;;;128.60;2252.80;;;;;;5099770;28;20035;-69
2021/03/14 04:51:24;;;;;;;6.93;2.50;;;128.70;2252.80;;;;;;5099863;28;20020;-70
2021/03/14 04:53:52;;;;;;;4.10;2.05;;;128.80;2252.80;;;;;;5099623;28;20473;-69
2021/03/14 04:56:18;;;;;;;7.15;3.08;;;128.80;2252.80;;;;;;5098981;28;20024;-70
2021/03/14 04:58:46;;;;;;;6.20;3.55;;;128.80;2252.80;;;;;;5099542;28;20026;-70
2021/03/14 05:01:12;;;;;;;8.55;2.75;;;128.80;2252.80;;;;;;5099812;28;20055;-70
2021/03/14 05:03:40;;;;;;;6.03;2.40;;;128.90;2252.80;;;;;;5099253;28;20024;-70
2021/03/14 05:06:07;;;;;;;7.72;3.45;;;128.90;2252.80;;;;;;5099656;28;20307;-69
2021/03/14 05:08:33;;;;;;;6.53;3.85;;;128.70;2252.80;;;;;;5099098;28;20073;-69
2021/03/14 05:10:59;;;;;;;6.68;4.03;;;128.60;2252.80;;;;;;5099310;28;20028;-69
2021/03/14 05:13:25;;;;;;;9.75;6.47;;;128.50;2252.80;;;;;;5099266;28;20508;-70
2021/03/14 05:15:51;;;;;;;22.25;11.80;;;128.40;2252.80;;;;;;5098950;28;20024;-69
2021/03/14 05:18:18;;;;;;;17.67;9.15;;;128.70;2252.80;;;;;;5094495;28;20035;-69
2021/03/14 05:38:50;;;;;;;5.75;3.38;;;153.70;2252.80;;;;;;5166676;27;20668;-70
2021/03/14 05:41:16;;;;;;;4.95;2.55;;;204.90;2252.80;;;;;;5165371;27;20041;-70
2021/03/14 05:43:42;;;;;;;6.70;3.50;;;205.10;2252.80;;;;;;5165580;27;20019;-70
2021/03/14 05:46:11;;;;;;;8.98;3.05;;;204.90;2252.80;;;;;;5167180;27;20049;-70
2021/03/14 05:48:37;;;;;;;6.20;2.50;;;204.80;2252.80;;;;;;5165404;27;20023;-71
2021/03/14 05:51:06;;;;;;;4.88;2.53;;;179.90;2252.80;;;;;;5165239;27;20030;-71
2021/03/14 05:53:32;;;;;;;4.50;2.40;;;179.80;2252.80;;;;;;5166862;27;20015;-70
2021/03/14 05:55:59;;;;;;;6.10;2.47;;;179.70;2252.80;;;;;;5164915;27;20146;-69
2021/03/14 05:58:25;;;;;;;5.20;2.88;;;180.00;2252.80;;;;;;5165164;27;20025;-69
2021/03/14 06:00:51;;;;;;;7.22;3.45;;;180.00;2252.80;;;;;;5166765;27;20026;-69
2021/03/14 06:03:19;;;;;;;7.30;2.70;;;180.10;2252.80;;;;;;5165284;27;20095;-69
2021/03/14 06:05:45;;;;;;;5.47;2.83;;;204.90;2252.80;;;;;;5165121;27;20023;-69
2021/03/14 06:08:12;;;;;;;6.35;3.40;;;204.90;2252.80;;;;;;5165958;27;20029;-69
2021/03/14 06:10:38;;;;;;;8.35;3.75;;;180.10;2252.80;;;;;;5163966;27;20023;-69
2021/03/14 06:13:05;;;;;;;5.38;2.50;;;204.80;2252.80;;;;;;5161355;27;20302;-69
2021/03/14 06:15:31;;;;;;;5.35;2.95;;;204.80;2252.80;;;;;;5155093;27;20019;-69
2021/03/14 06:17:57;;;;;;;9.02;3.95;;;180.10;2252.80;;;;;;5155150;27;20489;-69
2021/03/14 06:20:44;;;;;;;7.57;3.80;;;205.10;2252.80;;;;;;5155471;27;20029;-69
2021/03/14 06:23:14;;;;;;;5.35;3.15;;;205.60;2252.80;;;;;;5155609;27;20029;-69
2021/03/14 06:25:42;;;;;;;5.63;3.00;;;205.60;2252.80;;;;;;5155308;27;20027;-69
2021/03/14 06:28:09;;;;;;;7.03;3.40;;;205.50;2252.80;;;;;;5155460;27;20029;-69
2021/03/14 06:30:36;;;;;;;8.68;3.63;;;205.60;2252.80;;;;;;5155492;27;20031;-68
2021/03/14 06:33:05;;;;;;;9.50;5.10;;;230.40;2252.80;;;;;;5154865;27;20018;-69
2021/03/14 06:35:43;;;;;;;14.63;9.65;;;230.50;2252.80;;;;;;5155004;27;20070;-69
2021/03/14 06:38:23;;;;;;;10.10;6.47;;;230.60;2252.80;;;;;;5150138;27;20066;-69
2021/03/14 06:41:11;;;;;;;7.47;4.45;;;230.50;2252.80;;;;;;5141373;27;20031;-68
2021/03/14 06:44:20;;;;;;;33.88;24.95;;;230.50;2252.80;;;;;;5140413;27;20084;-69
2021/03/14 06:46:46;;;;;;;18.10;11.27;;;230.50;2252.80;;;;;;5057135;28;20037;-69
2021/03/14 06:49:15;;;;;;;12.38;7.10;;;230.50;2252.80;;;;;;5057747;28;20178;-69
2021/03/14 06:51:58;;;;;;;24.20;12.27;;;230.40;2252.80;;;;;;5057584;28;20040;-69
2021/03/14 06:54:40;;;;;;;16.50;9.13;;;230.40;2252.80;;;;;;5057180;28;20482;-69
2021/03/14 06:57:12;;;;;;;17.73;8.45;;;230.40;2252.80;;;;;;5056910;28;20383;-68
2021/03/14 06:59:47;;;;;;;10.55;5.60;;;230.40;2252.80;;;;;;5057277;28;20079;-69
2021/03/14 07:02:24;;;;;;;13.43;5.50;;;230.50;2252.80;;;;;;5057433;28;20037;-68
2021/03/14 07:04:59;;;;;;;15.00;7.90;;;205.70;2252.80;;;;;;5057088;28;20123;-68
2021/03/14 07:07:28;;;;;;;12.95;7.00;;;205.70;2252.80;;;;;;5056453;28;20029;-68
2021/03/14 07:10:03;;;;;;;8.40;5.13;;;205.60;2252.80;;;;;;5057315;28;20140;-69
2021/03/14 07:12:31;;;;;;;11.43;7.68;;;205.50;2252.80;;;;;;5057401;28;20112;-69
2021/03/14 07:14:57;;;;;;;11.70;7.20;;;205.30;2252.80;;;;;;5056663;28;20071;-69
2021/03/14 07:17:29;;;;;;;20.33;11.13;;;205.20;2252.80;;;;;;5057238;28;20033;-68
2021/03/14 07:19:59;;;;;;;17.85;9.32;;;205.10;2252.80;;;;;;5056724;28;20071;-69
2021/03/14 07:22:26;;;;;;;11.35;7.05;;;205.30;2252.80;;;;;;5107698;27;20122;-69
2021/03/14 07:24:52;;;;;;;14.90;7.07;;;205.50;2252.80;;;;;;5140390;27;20031;-69
2021/03/14 07:27:27;;;;;;;9.10;6.43;;;205.70;2252.80;;;;;;5140277;27;20497;-69
2021/03/14 07:29:54;;;;;;;10.48;6.35;;;230.50;2252.80;;;;;;5140618;27;20031;-69
2021/03/14 07:32:20;;;;;;;11.18;6.78;;;231.00;2252.80;;;;;;5140201;27;20019;-68
2021/03/14 07:34:46;;;;;;;18.90;13.75;;;231.20;2252.80;;;;;;5140176;27;20072;-69
2021/03/14 07:37:13;;;;;;;9.13;5.70;;;256.00;2252.80;;;;;;5139856;27;20138;-68
2021/03/14 07:39:40;;;;;;;15.05;10.73;;;256.00;2252.80;;;;;;5140300;27;20028;-69
2021/03/14 07:42:06;;;;;;;21.63;14.02;;;256.30;2252.80;;;;;;5140028;27;20019;-69
2021/03/14 07:44:33;;;;;;;24.35;13.15;;;256.70;2252.80;;;;;;5140173;27;20065;-69
2021/03/14 07:47:00;;;;;;;13.50;7.38;;;281.70;2278.40;;;;;;5140133;27;20031;-69
2021/03/14 07:49:27;;;;;;;12.80;6.78;;;282.00;2278.40;;;;;;5139116;27;20034;-69
2021/03/14 07:52:20;;;;;;;12.23;8.70;;;282.40;2278.40;;;;;;5131551;27;20027;-68
2021/03/14 07:55:04;;;;;;;16.83;11.00;;;307.30;2304.00;;;;;;5133967;27;20023;-69
2021/03/14 07:57:31;;;;;;;20.35;11.38;;;307.80;2304.00;;;;;;5135063;27;20509;-69
2021/03/14 07:59:58;;;;;;;67.35;44.83;;;308.00;2304.00;;;;;;5137267;27;20495;-68
2021/03/14 08:02:25;;;;;;;16.55;8.05;;;332.90;2329.60;;;;;;5136385;27;20012;-69
2021/03/14 08:04:55;;;;;;;14.65;6.53;;;307.80;2304.00;;;;;;5134288;27;20034;-68
2021/03/14 08:07:34;;;;;;;23.58;8.95;;;307.70;2304.00;;;;;;5135389;27;20027;-69
2021/03/14 08:10:02;;;;;;;16.35;7.57;;;307.70;2304.00;;;;;;5134880;27;20370;-68
2021/03/14 08:12:36;;;;;;;18.88;7.15;;;307.60;2304.00;;;;;;5134464;27;20053;-69
2021/03/14 08:15:18;;;;;;;20.63;6.45;;;307.90;2304.00;;;;;;5139679;27;20023;-69
2021/03/14 08:17:44;;;;;;;10.65;6.03;;;308.10;2304.00;;;;;;5146492;27;20037;-69
2021/03/14 08:20:13;;;;;;;10.48;6.07;;;308.00;2304.00;;;;;;5146564;27;20113;-69
2021/03/14 08:22:38;;;;;;;;;;;308.10;2304.00;;;;;;5146742;27;20107;-69
2021/03/14 08:25:30;;;;;;;18.15;7.60;;;333.00;2329.60;;;;;;5145160;27;19997;-69
2021/03/14 08:28:00;;;;;;;17.90;9.30;;;332.90;2329.60;;;;;;5136123;27;20027;-69
2021/03/14 08:30:32;;;;;;;15.02;9.02;;;333.30;2329.60;;;;;;5134059;27;20042;-69
2021/03/14 08:33:22;;;;;;;10.63;6.25;;;333.30;2329.60;;;;;;5134539;27;20061;-69
2021/03/14 08:35:57;;;;;;;15.27;9.13;;;333.60;2329.60;;;;;;5135196;27;20027;-69
2021/03/14 08:38:40;;;;;;;10.15;5.47;;;333.70;2329.60;;;;;;5135603;27;20047;-69
2021/03/14 08:41:29;;;;;;;7.18;3.33;;;358.50;2304.00;;;;;;5136469;27;20405;-70
2021/03/14 08:43:55;;;;;;;;;;;358.60;2124.80;;;;;;5134610;27;20026;-69
2021/03/14 08:46:41;;;;;;;6.72;3.53;;;358.60;2073.60;;;;;;5149619;27;19911;-69
2021/03/14 08:49:08;;;;;;;10.27;4.85;;;358.90;2073.60;;;;;;5156086;27;20023;-69
2021/03/14 08:51:35;;;;;;;9.90;3.72;;;359.30;2022.40;;;;;;5157009;27;20018;-69
2021/03/14 08:54:01;;;;;;;13.35;4.65;;;359.30;1971.20;;;;;;5155056;27;20105;-69
2021/03/14 08:56:27;;;;;;;9.30;4.72;;;384.10;1971.20;;;;;;5154972;27;20508;-69
2021/03/14 08:59:13;;;;;;;8.85;3.90;;;384.30;1945.60;;;;;;5155758;27;20030;-69
2021/03/14 09:01:39;;;;;;;8.68;4.32;;;384.40;1920.00;;;;;;5156091;27;20563;-69
2021/03/14 09:04:20;;;;;;;6.75;3.13;;;384.70;1894.40;;;;;;5155020;27;20638;-69
2021/03/14 09:06:46;;;;;;;8.02;3.17;;;384.80;1868.80;;;;;;5147185;27;20034;-69
2021/03/14 09:09:16;;;;;;;6.68;3.40;;;409.80;1843.20;;;;;;5134983;27;20084;-69
2021/03/14 09:11:51;;;;;;;6.15;3.80;;;409.80;1868.80;;;;;;5133552;27;20026;-69
2021/03/14 09:14:26;;;;;;;9.23;4.28;;;409.80;1817.60;;;;;;5133764;27;20030;-69
2021/03/14 09:16:57;;;;;;;5.93;3.25;;;435.20;1817.60;;;;;;5131990;27;20023;-69
2021/03/14 09:19:28;;;;;;;8.27;3.33;;;410.50;1817.60;;;;;;5134240;27;20015;-69
2021/03/14 09:22:02;;;;;;;5.38;3.35;;;410.30;1792.00;;;;;;5135594;27;20019;-69
2021/03/14 09:24:29;;;;;;;9.63;3.65;;;410.40;1792.00;;;;;;5134490;27;20034;-70
2021/03/14 09:27:04;;;;;;;8.38;2.70;;;410.10;1792.00;;;;;;5133971;27;20030;-70
2021/03/14 09:29:34;;;;;;;5.63;3.15;;;410.10;1792.00;;;;;;5135009;27;20117;-69
2021/03/14 09:32:01;;;;;;;10.13;3.70;;;409.80;1817.60;;;;;;5135054;27;20337;-69
2021/03/14 09:34:27;;;;;;;11.63;3.17;;;410.00;1817.60;;;;;;5133966;27;20027;-68
2021/03/14 09:36:53;;;;;;;5.55;3.03;;;410.00;1766.40;;;;;;5133562;27;20112;-68
2021/03/14 09:39:24;;;;;;;6.22;2.63;;;410.30;1740.80;;;;;;5132611;27;20028;-69
2021/03/14 09:41:50;;;;;;;7.60;3.38;;;410.30;1766.40;;;;;;5132629;28;20030;-68
2021/03/14 09:44:17;;;;;;;5.75;3.10;;;410.40;1766.40;;;;;;5133352;28;20074;-69
2021/03/14 09:46:52;;;;;;;8.00;3.58;;;410.00;1766.40;;;;;;5141200;27;20027;-68
2021/03/14 09:49:18;;;;;;;4.82;2.42;;;410.10;1740.80;;;;;;5135194;27;20034;-69
2021/03/14 09:51:50;;;;;;;7.28;3.90;;;410.30;1740.80;;;;;;5134890;28;20019;-68
2021/03/14 09:54:16;;;;;;;8.98;3.60;;;435.20;1715.20;;;;;;5114389;28;20345;-69
2021/03/14 09:56:48;;;;;;;4.53;2.88;;;435.30;1740.80;;;;;;5114372;28;20027;-69
2021/03/14 09:59:19;;;;;;;9.20;4.90;;;435.40;1740.80;;;;;;5120425;28;20028;-69
2021/03/14 10:01:49;;;;;;;9.93;5.10;;;435.40;1664.00;;;;;;5132396;28;20043;-70
2021/03/14 10:04:15;;;;;;;4.78;2.85;;;435.30;1664.00;;;;;;5132099;27;20342;-69
2021/03/14 10:06:43;;;;;;;5.45;2.90;;;435.20;1638.40;;;;;;5130948;28;20035;-69
2021/03/14 10:09:23;;;;;;;5.20;2.75;;;435.80;1689.60;;;;;;5132451;27;20095;-69
2021/03/14 10:11:50;;;;;;;10.55;5.57;;;436.00;1638.40;;;;;;5131908;28;20687;-69
2021/03/14 10:14:18;;;;;;;4.47;2.40;;;435.60;1612.80;;;;;;5134388;27;20075;-69
2021/03/14 10:16:45;;;;;;;5.07;3.30;;;435.30;1612.80;;;;;;5136981;27;20116;-68
2021/03/14 10:19:11;;;;;;;9.90;4.28;;;435.20;1587.20;;;;;;5136847;27;20031;-69
2021/03/14 10:21:43;;;;;;;8.07;3.90;;;410.50;1638.40;;;;;;5138802;27;20034;-69
2021/03/14 10:24:21;;;;;;;6.70;3.60;;;435.50;1587.20;;;;;;5138821;27;20026;-69
2021/03/14 10:26:54;;;;;;;7.93;3.97;;;435.90;1612.80;;;;;;5137625;27;20038;-69
2021/03/14 10:29:21;;;;;;;5.22;2.25;;;460.80;1587.20;;;;;;5136974;27;20027;-70
2021/03/14 10:31:48;;;;;;;9.57;2.83;;;461.20;1561.60;;;;;;5138695;27;20027;-70
2021/03/14 10:34:18;;;;;;;8.18;2.70;;;461.50;1587.20;;;;;;5138182;27;20027;-69
2021/03/14 10:36:45;;;;;;;12.27;6.18;;;486.80;1510.40;;;;;;5134208;27;20097;-68
2021/03/14 10:39:11;;;;;;;13.10;6.40;;;461.60;1561.60;;;;;;5137287;27;20163;-68
2021/03/14 10:41:43;;;;;;;6.63;3.40;;;487.00;1510.40;;;;;;5136549;27;20114;-67
2021/03/14 10:44:09;;;;;;;4.80;3.20;;;461.60;1484.80;;;;;;5137022;27;20426;-68
2021/03/14 10:46:49;;;;;;;11.00;3.25;;;461.60;1510.40;;;;;;5140527;27;20071;-68
2021/03/14 10:49:23;;;;;;;10.10;4.70;;;461.50;1433.60;;;;;;5138418;27;20070;-69
2021/03/14 10:51:51;;;;;;;10.20;3.13;;;486.50;1459.20;;;;;;5136398;27;20322;-67
2021/03/14 10:54:17;;;;;;;;;;;486.40;1459.20;;;;;;5138010;27;20078;-66
2021/03/14 10:56:49;;;;;;;4.00;1.70;;;487.00;1433.60;;;;;;5137613;27;19903;-69
2021/03/14 10:59:33;;;;;;;6.07;2.40;;;512.30;1382.40;;;;;;5140203;27;20414;-69
2021/03/14 11:02:13;;;;;;;7.22;3.08;;;512.40;1433.60;;;;;;5139348;27;20409;-69
2021/03/14 11:04:39;;;;;;;5.03;2.70;;;512.00;1484.80;;;;;;5137268;27;20027;-68
2021/03/14 11:07:26;;;;;;;8.25;3.63;;;512.80;1408.00;;;;;;5138760;27;20023;-69
2021/03/14 11:10:13;;;;;;;4.57;2.92;;;512.30;1433.60;;;;;;5138160;27;20081;-68
2021/03/14 11:12:41;;;;;;;4.97;2.50;;;487.00;1459.20;;;;;;5136745;27;20084;-69
2021/03/14 11:15:08;;;;;;;5.85;3.17;;;486.60;1459.20;;;;;;5137524;27;20035;-68
2021/03/14 11:17:38;;;;;;;6.68;3.50;;;461.60;1484.80;;;;;;5137822;27;20039;-68
2021/03/14 11:20:05;;;;;;;7.05;3.65;;;461.60;1510.40;;;;;;5136910;27;20023;-68
2021/03/14 11:22:31;;;;;;;6.55;3.38;;;486.40;1510.40;;;;;;5137148;27;20460;-69
2021/03/14 11:24:57;;;;;;;6.57;3.47;;;486.40;1510.40;;;;;;5136688;27;20063;-68
2021/03/14 11:27:24;;;;;;;6.43;2.95;;;487.30;1510.40;;;;;;5139719;27;20379;-69
2021/03/14 11:29:50;;;;;;;6.07;2.53;;;512.80;1459.20;;;;;;5135645;27;20031;-70
2021/03/14 11:32:34;;;;;;;9.57;2.60;;;512.00;1382.40;;;;;;5196918;22;21817;-71
2021/03/14 11:35:00;;;;;;;4.70;2.20;;;486.70;1459.20;;;;;;5065164;28;20041;-70
2021/03/14 11:37:26;;;;;;;8.88;4.22;;;512.30;1408.00;;;;;;5058739;28;20055;-68
2021/03/14 11:39:52;;;;;;;7.75;4.57;;;512.50;1382.40;;;;;;5058813;28;20425;-71
2021/03/14 11:42:19;;;;;;;6.15;3.63;;;512.70;1356.80;;;;;;5058085;28;20017;-68
2021/03/14 11:44:45;;;;;;;6.03;2.35;;;512.50;1408.00;;;;;;5071156;28;20107;-70
2021/03/14 11:47:24;;;;;;;6.30;2.58;;;512.20;1433.60;;;;;;5076872;28;20119;-72
2021/03/14 11:49:50;;;;;;;4.93;2.78;;;512.10;1433.60;;;;;;5076850;28;20086;-71
2021/03/14 11:52:16;;;;;;;6.68;3.83;;;512.30;1408.00;;;;;;5077381;28;20059;-71
2021/03/14 11:54:42;;;;;;;7.78;3.30;;;512.70;1408.00;;;;;;5076781;28;20316;-69
2021/03/14 11:57:11;;;;;;;10.18;5.38;;;487.20;1433.60;;;;;;5077280;28;20024;-69
2021/03/14 11:59:51;;;;;;;10.27;6.85;;;487.30;1433.60;;;;;;5077034;28;20365;-72
2021/03/14 12:02:22;;;;;;;7.22;4.07;;;512.20;1433.60;;;;;;5075392;28;20031;-69
2021/03/14 12:04:47;;;;;;;7.78;3.50;;;461.60;1510.40;;;;;;5076105;28;20028;-70
2021/03/14 12:07:13;;;;;;;6.90;3.17;;;486.50;1510.40;;;;;;5076114;28;20334;-70
2021/03/14 12:09:39;;;;;;;7.45;3.55;;;461.30;1536.00;;;;;;5076688;28;20086;-69
2021/03/14 12:12:05;;;;;;;3.83;2.45;;;486.40;1536.00;;;;;;5077506;28;20329;-69
2021/03/14 12:14:31;;;;;;;6.80;3.47;;;486.80;1459.20;;;;;;5077592;28;20342;-70
2021/03/14 12:17:01;;;;;;;10.68;3.50;;;512.30;1433.60;;;;;;5077651;28;20047;-69
2021/03/14 12:19:27;;;;;;;4.15;2.67;;;512.90;1408.00;;;;;;5077754;28;20373;-70
2021/03/14 12:21:54;;;;;;;10.27;3.25;;;537.90;1408.00;;;;;;5077653;28;20049;-69
2021/03/14 12:24:21;;;;;;;5.93;2.85;;;512.70;1433.60;;;;;;5067878;28;20031;-70
2021/03/14 12:26:47;;;;;;;6.63;2.90;;;512.30;1433.60;;;;;;5076499;28;20020;-69
2021/03/14 12:29:13;;;;;;;6.13;2.50;;;486.70;1484.80;;;;;;5077163;28;20055;-69
2021/03/14 12:31:39;;;;;;;7.45;2.72;;;461.50;1536.00;;;;;;5077395;28;20078;-69
2021/03/14 12:34:05;;;;;;;5.03;3.20;;;461.20;1536.00;;;;;;5103846;28;20047;-69
2021/03/14 12:36:30;;;;;;;5.72;3.03;;;461.20;1587.20;;;;;;5117399;28;20028;-69
2021/03/14 12:38:56;;;;;;;7.00;3.08;;;461.10;1587.20;;;;;;5118633;28;20032;-69
2021/03/14 12:41:22;;;;;;;5.18;3.17;;;460.80;1638.40;;;;;;5111587;28;20030;-69
2021/03/14 12:43:48;;;;;;;13.90;9.70;;;460.80;1638.40;;;;;;5104382;28;20028;-69